Terminal Aerodrome Forecast
Issued by NWS

Home | Current Version | Previous Version | Text Only | Print | Product List | Glossary On
Versions: 1 2 3 4 5 6 7 8 9 10 11 12 13 14 15
423
FTAK31 PAJN 271730
TAFAGY
TAF
PAGY 271730Z 2718/2818 21010KT P6SM -SHRA FEW025 OVC060
     FM272000 21013G20KT P6SM -SHRA OVC060
     FM280300 21010KT P6SM -SHRA OVC060
      AMD LTD TO CLD VIS AND WIND=

USA.gov is the U.S. government's official web portal to all federal, state and local government web resources and services.